createdAt,value
2023-03-06T00:00:20.587Z,100977.47
2023-03-06T00:02:47.482Z,100979.16
2023-03-06T00:05:14.756Z,100967.03
2023-03-06T00:07:41.775Z,100973.84
2023-03-06T00:10:09.206Z,100953.44
2023-03-06T00:12:35.547Z,100957.97
2023-03-06T00:15:04.025Z,100962.34
2023-03-06T00:17:31.599Z,100959.06
2023-03-06T00:19:57.980Z,100958.44
2023-03-06T00:22:24.383Z,100951.63
2023-03-06T00:24:53.483Z,100942.19
2023-03-06T00:27:20.648Z,100937.66
2023-03-06T00:29:49.159Z,100931.50
2023-03-06T00:32:15.959Z,100937.66
2023-03-06T00:34:42.338Z,100938.06
2023-03-06T00:37:08.686Z,100931.66
2023-03-06T00:39:35.042Z,100934.97
2023-03-06T00:42:01.400Z,100921.56
2023-03-06T00:44:27.778Z,100910.88
2023-03-06T00:46:54.158Z,100910.88
2023-03-06T00:49:20.566Z,100908.19
2023-03-06T00:51:46.928Z,100902.22
2023-03-06T00:54:13.323Z,100898.94
2023-03-06T00:56:39.672Z,100898.94
2023-03-06T00:59:06.021Z,100895.66
2023-03-06T01:01:32.594Z,100899.78
2023-03-06T01:03:58.990Z,100891.59
2023-03-06T01:06:25.408Z,100889.94
2023-03-06T01:08:51.758Z,100887.88
2023-03-06T01:11:18.125Z,100881.06
2023-03-06T01:13:44.669Z,100880.44
2023-03-06T01:16:14.167Z,100878.38
2023-03-06T01:18:41.369Z,100873.63
2023-03-06T01:21:07.937Z,100873.03
2023-03-06T01:23:34.593Z,100869.53
2023-03-06T01:26:01.273Z,100873.03
2023-03-06T01:28:27.727Z,100872.81
2023-03-06T01:30:54.111Z,100871.38
2023-03-06T01:33:20.882Z,100875.09
2023-03-06T01:35:47.308Z,100869.13
2023-03-06T01:38:14.225Z,100868.09
2023-03-06T01:40:40.903Z,100875.53
2023-03-06T01:43:29.285Z,100867.31
2023-03-06T01:46:17.501Z,100869.56
2023-03-06T01:48:44.935Z,100864.03
2023-03-06T01:51:12.144Z,100865.06
2023-03-06T01:53:41.059Z,100861.78
2023-03-06T01:56:07.787Z,100861.16
2023-03-06T01:58:34.539Z,100855.81
2023-03-06T02:01:00.952Z,100855.81
2023-03-06T02:03:28.953Z,100854.97
2023-03-06T02:05:56.398Z,100841.41
2023-03-06T02:08:23.972Z,100838.56
2023-03-06T02:11:17.381Z,100841.66
2023-03-06T02:13:44.933Z,100830.75
2023-03-06T02:16:12.206Z,100835.50
2023-03-06T02:18:40.787Z,100827.91
2023-03-06T02:21:09.997Z,100827.31
2023-03-06T02:23:59.548Z,100832.47
2023-03-06T02:26:28.121Z,100829.19
2023-03-06T02:28:54.502Z,100827.53
2023-03-06T02:31:27.051Z,100828.16
2023-03-06T02:34:05.637Z,100822.19
2023-03-06T02:36:35.349Z,100820.56
2023-03-06T02:39:02.055Z,100817.25
2023-03-06T02:41:28.418Z,100815.63
2023-03-06T02:43:54.890Z,100817.25
2023-03-06T02:46:21.394Z,100813.13
2023-03-06T02:48:47.870Z,100808.81
2023-03-06T02:51:14.241Z,100808.41
2023-03-06T02:53:40.626Z,100800.78
2023-03-06T02:56:07.836Z,100806.50
2023-03-06T02:58:34.265Z,100792.94
2023-03-06T03:01:00.612Z,100788.56
2023-03-06T03:03:26.959Z,100777.22
2023-03-06T03:05:53.342Z,100772.88
2023-03-06T03:08:19.709Z,100774.91
2023-03-06T03:10:46.065Z,100768.06
2023-03-06T03:13:12.468Z,100771.16
2023-03-06T03:15:38.909Z,100764.34
2023-03-06T03:18:05.304Z,100753.19
2023-03-06T03:20:31.653Z,100754.41
2023-03-06T03:22:58.026Z,100749.66
2023-03-06T03:25:26.046Z,100752.31
2023-03-06T03:27:52.453Z,100749.22
2023-03-06T03:30:19.014Z,100741.78
2023-03-06T03:32:45.436Z,100741.34
2023-03-06T03:35:11.829Z,100735.78
2023-03-06T03:37:38.352Z,100737.41
2023-03-06T03:40:06.621Z,100731.84
2023-03-06T03:42:33.204Z,100738.84
2023-03-06T03:44:59.580Z,100734.09
2023-03-06T03:47:25.980Z,100727.69
2023-03-06T03:49:52.345Z,100725.03
2023-03-06T03:52:18.725Z,100725.63
2023-03-06T03:54:45.082Z,100721.31
2023-03-06T03:57:11.535Z,100716.97
2023-03-06T03:59:37.863Z,100711.41
2023-03-06T04:02:07.201Z,100716.31
2023-03-06T04:04:33.650Z,100720.41
2023-03-06T04:07:00.681Z,100712.97
2023-03-06T04:09:27.195Z,100716.25
2023-03-06T04:11:53.552Z,100717.06
2023-03-06T04:14:19.920Z,100713.34
2023-03-06T04:16:46.273Z,100713.13
2023-03-06T04:19:12.681Z,100703.00
2023-03-06T04:21:39.046Z,100699.28
2023-03-06T04:24:06.030Z,100703.00
2023-03-06T04:26:32.400Z,100696.84
2023-03-06T04:28:58.984Z,100697.66
2023-03-06T04:31:25.495Z,100689.41
2023-03-06T04:33:51.880Z,100690.22
2023-03-06T04:36:30.362Z,100687.34
2023-03-06T04:38:57.441Z,100682.78
2023-03-06T04:41:23.864Z,100683.22
2023-03-06T04:43:50.763Z,100679.50
2023-03-06T04:46:17.418Z,100678.25
2023-03-06T04:48:44.091Z,100676.03
2023-03-06T04:51:12.562Z,100670.44
2023-03-06T04:53:39.211Z,100676.63
2023-03-06T04:56:06.274Z,100671.03
2023-03-06T04:58:32.601Z,100668.94
2023-03-06T05:00:58.982Z,100670.38
2023-03-06T05:03:25.379Z,100669.09
2023-03-06T05:05:51.720Z,100676.09
2023-03-06T05:08:18.396Z,100662.94
2023-03-06T05:10:45.666Z,100664.56
2023-03-06T05:13:12.206Z,100667.84
2023-03-06T05:15:41.342Z,100665.16
2023-03-06T05:18:07.720Z,100666.22
2023-03-06T05:20:34.109Z,100657.94
2023-03-06T05:23:00.482Z,100657.50
2023-03-06T05:25:26.855Z,100666.13
2023-03-06T05:27:53.204Z,100665.09
2023-03-06T05:30:21.154Z,100667.75
2023-03-06T05:32:47.605Z,100657.03
2023-03-06T05:35:22.893Z,100661.97
2023-03-06T05:37:49.355Z,100654.50
2023-03-06T05:40:16.411Z,100655.34
2023-03-06T05:42:43.033Z,100648.34
2023-03-06T05:45:10.276Z,100644.63
2023-03-06T05:47:36.865Z,100651.63
2023-03-06T05:50:04.855Z,100647.06
2023-03-06T05:52:31.271Z,100638.44
2023-03-06T05:54:57.666Z,100646.72
2023-03-06T05:57:24.675Z,100636.22
2023-03-06T05:59:51.304Z,100639.34
2023-03-06T06:02:19.231Z,100639.78
2023-03-06T06:04:45.617Z,100638.97
2023-03-06T06:07:16.982Z,100640.22
2023-03-06T06:09:45.560Z,100642.31
2023-03-06T06:12:15.422Z,100648.72
2023-03-06T06:14:41.819Z,100662.09
2023-03-06T06:17:08.183Z,100662.09
2023-03-06T06:19:34.518Z,100662.09
2023-03-06T06:22:02.656Z,100668.06
2023-03-06T06:24:29.997Z,100661.22
2023-03-06T06:26:57.720Z,100659.97
2023-03-06T06:29:24.957Z,100666.72
2023-03-06T06:31:52.166Z,100664.63
2023-03-06T06:34:19.356Z,100666.06
2023-03-06T06:36:45.802Z,100663.16
2023-03-06T06:39:15.447Z,100656.75
2023-03-06T06:41:59.368Z,100656.75
2023-03-06T06:44:28.318Z,100663.75
2023-03-06T06:47:22.409Z,100662.25
2023-03-06T06:49:40.962Z,100666.38
2023-03-06T06:52:07.549Z,100661.81
2023-03-06T06:54:34.739Z,100657.63
2023-03-06T06:57:01.193Z,100667.91
2023-03-06T06:59:27.626Z,100658.81
2023-03-06T07:01:54.013Z,100657.53
2023-03-06T07:04:20.656Z,100672.97
2023-03-06T07:06:47.041Z,100675.66
2023-03-06T07:09:14.263Z,100675.19
2023-03-06T07:11:41.439Z,100672.50
2023-03-06T07:14:08.233Z,100677.63
2023-03-06T07:16:34.869Z,100681.75
2023-03-06T07:19:01.257Z,100680.09
2023-03-06T07:21:27.649Z,100683.38
2023-03-06T07:23:55.180Z,100686.19
2023-03-06T07:26:21.858Z,100681.44
2023-03-06T07:28:53.142Z,100687.97
2023-03-06T07:31:22.397Z,100681.94
2023-03-06T07:33:53.333Z,100683.34
2023-03-06T07:36:20.539Z,100688.03
2023-03-06T07:38:47.169Z,100687.34
2023-03-06T07:41:15.167Z,100681.53
2023-03-06T07:43:42.141Z,100687.59
2023-03-06T07:46:09.273Z,100684.84
2023-03-06T07:48:36.912Z,100690.34
2023-03-06T07:51:06.169Z,100687.09
2023-03-06T07:53:34.203Z,100681.75
2023-03-06T07:56:00.731Z,100683.41
2023-03-06T07:58:27.289Z,100684.59
2023-03-06T08:00:53.644Z,100686.59
2023-03-06T08:03:20.023Z,100686.03
2023-03-06T08:05:46.415Z,100689.50
2023-03-06T08:08:12.809Z,100674.19
2023-03-06T08:10:39.282Z,100680.03
2023-03-06T08:13:05.702Z,100690.31
2023-03-06T08:15:32.091Z,100690.19
2023-03-06T08:17:58.531Z,100689.03
2023-03-06T08:20:24.989Z,100684.13
2023-03-06T08:22:51.352Z,100688.56
2023-03-06T08:25:17.743Z,100688.81
2023-03-06T08:27:46.724Z,100689.41
2023-03-06T08:30:13.762Z,100686.59
2023-03-06T08:32:40.225Z,100689.16
2023-03-06T08:35:06.831Z,100688.44
2023-03-06T08:37:33.304Z,100686.44
2023-03-06T08:39:59.694Z,100687.63
2023-03-06T08:42:26.182Z,100687.50
2023-03-06T08:44:52.507Z,100688.53
2023-03-06T08:47:19.018Z,100689.09
2023-03-06T08:49:45.486Z,100687.09
2023-03-06T08:52:11.971Z,100679.72
2023-03-06T08:54:39.234Z,100685.22
2023-03-06T08:57:06.404Z,100690.31
2023-03-06T08:59:32.816Z,100680.34
2023-03-06T09:01:59.253Z,100683.91
2023-03-06T09:04:25.699Z,100681.94
2023-03-06T09:06:53.932Z,100677.22
2023-03-06T09:09:21.579Z,100682.41
2023-03-06T09:11:48.144Z,100679.34
2023-03-06T09:14:14.542Z,100675.91
2023-03-06T09:16:40.909Z,100689.44
2023-03-06T09:19:07.293Z,100684.25
2023-03-06T09:21:33.801Z,100682.81
2023-03-06T09:24:00.264Z,100675.16
2023-03-06T09:26:39.460Z,100685.78
2023-03-06T09:29:12.575Z,100682.09
2023-03-06T09:31:38.968Z,100678.09
2023-03-06T09:34:05.757Z,100683.09
2023-03-06T09:36:40.152Z,100685.53
2023-03-06T09:39:12.274Z,100682.06
2023-03-06T09:41:41.446Z,100676.13
2023-03-06T09:44:18.540Z,100677.31
2023-03-06T09:47:03.122Z,100672.22
2023-03-06T09:49:54.114Z,100672.72
2023-03-06T09:52:58.207Z,100674.09
2023-03-06T09:55:27.143Z,100679.56
2023-03-06T09:58:09.374Z,100676.78
2023-03-06T10:00:41.489Z,100675.34
2023-03-06T10:03:19.301Z,100674.09
2023-03-06T10:06:12.949Z,100684.31
2023-03-06T10:09:03.430Z,100676.22
2023-03-06T10:11:40.700Z,100679.25
2023-03-06T10:14:35.783Z,100689.44
2023-03-06T10:17:02.701Z,100690.34
2023-03-06T10:19:42.218Z,100688.13
2023-03-06T10:22:27.450Z,100684.97
2023-03-06T10:25:03.264Z,100683.50
2023-03-06T10:27:57.181Z,100672.59
2023-03-06T10:30:35.765Z,100673.81
2023-03-06T10:33:22.651Z,100674.22
2023-03-06T10:35:53.331Z,100675.09
2023-03-06T10:38:25.895Z,100666.84
2023-03-06T10:41:10.589Z,100667.72
2023-03-06T10:43:42.824Z,100675.63
2023-03-06T10:46:11.751Z,100665.97
2023-03-06T10:48:41.982Z,100671.06
2023-03-06T10:51:23.887Z,100662.13
2023-03-06T10:53:57.788Z,100663.19
2023-03-06T10:56:35.791Z,100665.22
2023-03-06T10:59:12.736Z,100653.75
2023-03-06T11:01:45.210Z,100654.63
2023-03-06T11:04:23.754Z,100666.41
2023-03-06T11:07:16.656Z,100651.34
2023-03-06T11:09:47.723Z,100649.19
2023-03-06T11:12:32.311Z,100646.75
2023-03-06T11:15:14.132Z,100647.88
2023-03-06T11:17:58.821Z,100645.03
2023-03-06T11:20:44.681Z,100637.69
2023-03-06T11:23:20.136Z,100634.44
2023-03-06T11:25:56.460Z,100634.13
2023-03-06T11:28:33.089Z,100632.78
2023-03-06T11:31:22.900Z,100623.50
2023-03-06T11:34:14.080Z,100622.88
2023-03-06T11:37:16.295Z,100618.69
2023-03-06T11:39:59.479Z,100618.22
2023-03-06T11:42:40.628Z,100620.19
2023-03-06T11:45:22.633Z,100613.16
2023-03-06T11:47:57.751Z,100604.28
2023-03-06T11:50:39.366Z,100606.75
2023-03-06T11:53:10.437Z,100611.94
2023-03-06T11:55:39.790Z,100605.63
2023-03-06T11:58:39.371Z,100599.81
2023-03-06T12:01:22.499Z,100602.09
2023-03-06T12:03:57.531Z,100602.09
2023-03-06T12:06:51.686Z,100596.63
2023-03-06T12:09:28.597Z,100596.31
2023-03-06T12:12:23.008Z,100587.88
2023-03-06T12:15:06.756Z,100587.28
2023-03-06T12:17:55.205Z,100583.72
2023-03-06T12:20:43.988Z,100584.16
2023-03-06T12:23:16.373Z,100581.78
2023-03-06T12:25:49.844Z,100576.69
2023-03-06T12:28:42.217Z,100577.50
2023-03-06T12:31:11.575Z,100577.50
2023-03-06T12:33:59.421Z,100575.88
2023-03-06T12:36:51.796Z,100564.06
2023-03-06T12:39:35.799Z,100572.81
2023-03-06T12:42:24.042Z,100567.22
2023-03-06T12:45:03.991Z,100564.84
2023-03-06T12:47:43.930Z,100545.97
2023-03-06T12:50:29.898Z,100563.75
2023-03-06T12:53:00.425Z,100560.97
2023-03-06T12:55:27.853Z,100559.31
2023-03-06T12:57:54.253Z,100552.81
2023-03-06T13:00:32.942Z,100546.00
2023-03-06T13:03:29.784Z,100546.25
2023-03-06T13:06:12.948Z,100538.91
2023-03-06T13:08:52.727Z,100524.13
2023-03-06T13:11:49.714Z,100527.91
2023-03-06T13:14:22.996Z,100527.91
2023-03-06T13:16:49.430Z,100528.47
2023-03-06T13:19:19.676Z,100532.22
2023-03-06T13:21:55.114Z,100519.25
2023-03-06T13:24:23.993Z,100512.19
2023-03-06T13:26:54.899Z,100512.09
2023-03-06T13:29:36.521Z,100503.19
2023-03-06T13:32:02.972Z,100502.66
2023-03-06T13:34:39.737Z,100499.22
2023-03-06T13:37:23.119Z,100489.53
2023-03-06T13:39:55.685Z,100482.00
2023-03-06T13:42:31.680Z,100477.69
2023-03-06T13:45:07.772Z,100475.25
2023-03-06T13:50:44.023Z,100468.00
2023-03-06T13:53:37.758Z,100470.44
2023-03-06T13:56:31.916Z,100471.75
2023-03-06T13:59:17.100Z,100458.22
2023-03-06T14:02:05.735Z,100466.00
2023-03-06T14:04:34.336Z,100455.44
2023-03-06T14:07:06.792Z,100457.06
2023-03-06T14:09:37.906Z,100448.88
2023-03-06T14:12:18.731Z,100445.59
2023-03-06T14:14:50.732Z,100447.44
2023-03-06T14:17:27.497Z,100450.91
2023-03-06T14:19:54.876Z,100446.56
2023-03-06T14:22:24.279Z,100433.41
2023-03-06T14:25:07.400Z,100442.00
2023-03-06T14:27:43.987Z,100432.50
2023-03-06T14:30:17.885Z,100423.03
2023-03-06T14:32:44.988Z,100425.19
2023-03-06T14:35:23.297Z,100427.84
2023-03-06T14:37:55.528Z,100431.00
2023-03-06T14:40:29.001Z,100420.94
2023-03-06T14:43:22.585Z,100410.34
2023-03-06T14:45:55.017Z,100413.31
2023-03-06T14:48:22.523Z,100410.84
2023-03-06T14:50:54.367Z,100423.75
2023-03-06T14:53:27.961Z,100417.00
2023-03-06T14:56:01.058Z,100411.19
2023-03-06T14:58:51.027Z,100411.91
2023-03-06T15:01:24.170Z,100405.63
2023-03-06T15:03:53.163Z,100412.06
2023-03-06T15:06:22.633Z,100411.50
2023-03-06T15:09:00.385Z,100411.66
2023-03-06T15:11:26.931Z,100400.84
2023-03-06T15:14:04.922Z,100393.81
2023-03-06T15:16:31.567Z,100386.06
2023-03-06T15:19:00.287Z,100386.38
2023-03-06T15:21:28.624Z,100378.91
2023-03-06T15:23:57.108Z,100383.78
2023-03-06T15:26:29.359Z,100377.34
2023-03-06T15:29:09.061Z,100368.06
2023-03-06T15:31:44.071Z,100369.47
2023-03-06T15:34:10.385Z,100382.66
2023-03-06T15:36:44.436Z,100378.91
2023-03-06T15:39:32.061Z,100379.97
2023-03-06T15:42:16.013Z,100375.66
2023-03-06T15:44:42.580Z,100371.28
2023-03-06T15:47:11.664Z,100362.63
2023-03-06T15:49:39.799Z,100367.22
2023-03-06T15:52:07.440Z,100350.75
2023-03-06T15:54:34.292Z,100360.38
2023-03-06T15:57:02.554Z,100344.72
2023-03-06T15:59:33.183Z,100349.81
2023-03-06T16:02:11.712Z,100344.94
2023-03-06T16:04:38.147Z,100340.53
2023-03-06T16:07:04.500Z,100338.56
2023-03-06T16:09:30.910Z,100335.81
2023-03-06T16:11:57.402Z,100335.22
2023-03-06T16:14:23.978Z,100335.72
2023-03-06T16:16:52.509Z,100345.34
2023-03-06T16:19:28.994Z,100336.72
2023-03-06T16:21:56.367Z,100338.84
2023-03-06T16:24:23.046Z,100338.72
2023-03-06T16:26:51.371Z,100329.72
2023-03-06T16:29:23.558Z,100347.13
2023-03-06T16:31:50.239Z,100336.28
2023-03-06T16:34:17.037Z,100337.28
2023-03-06T16:36:43.486Z,100331.59
2023-03-06T16:39:21.998Z,100328.91
2023-03-06T16:41:51.845Z,100325.34
2023-03-06T16:44:19.275Z,100324.44
2023-03-06T16:46:47.914Z,100311.25
2023-03-06T16:49:20.153Z,100316.22
2023-03-06T16:51:46.882Z,100311.59
2023-03-06T16:54:13.761Z,100310.75
2023-03-06T16:56:40.245Z,100314.50
2023-03-06T16:59:06.900Z,100303.44
2023-03-06T17:01:33.424Z,100296.94
2023-03-06T17:03:59.836Z,100305.25
2023-03-06T17:06:26.323Z,100306.03
2023-03-06T17:08:52.773Z,100303.13
2023-03-06T17:11:22.035Z,100300.97
2023-03-06T17:13:48.708Z,100292.88
2023-03-06T17:16:16.385Z,100282.53
2023-03-06T17:18:44.620Z,100281.69
2023-03-06T17:21:12.660Z,100278.78
2023-03-06T17:23:39.136Z,100266.91
2023-03-06T17:26:18.790Z,100269.59
2023-03-06T17:28:45.770Z,100267.47
2023-03-06T17:31:22.341Z,100264.69
2023-03-06T17:33:49.340Z,100270.88
2023-03-06T17:36:16.330Z,100259.47
2023-03-06T17:38:43.345Z,100257.06
2023-03-06T17:41:11.020Z,100258.69
2023-03-06T17:43:38.633Z,100256.00
2023-03-06T17:46:07.376Z,100249.56
2023-03-06T17:48:33.994Z,100245.75
2023-03-06T17:51:00.646Z,100247.94
2023-03-06T17:53:27.751Z,100246.88
2023-03-06T17:55:55.164Z,100241.25
2023-03-06T17:58:21.497Z,100245.00
2023-03-06T18:00:48.243Z,100240.94
2023-03-06T18:03:14.596Z,100238.81
2023-03-06T18:05:41.042Z,100242.06
2023-03-06T18:08:08.296Z,100233.44
2023-03-06T18:10:34.780Z,100237.09
2023-03-06T18:13:01.183Z,100230.69
2023-03-06T18:15:27.533Z,100230.69
2023-03-06T18:17:54.676Z,100238.75
2023-03-06T18:20:21.010Z,100227.44
2023-03-06T18:22:47.400Z,100228.50
2023-03-06T18:25:13.780Z,100224.00
2023-03-06T18:27:40.132Z,100230.25
2023-03-06T18:30:07.006Z,100222.53
2023-03-06T18:32:33.401Z,100223.50
2023-03-06T18:34:59.799Z,100215.69
2023-03-06T18:37:26.206Z,100211.16
2023-03-06T18:39:52.802Z,100204.38
2023-03-06T18:42:19.248Z,100194.88
2023-03-06T18:44:47.773Z,100197.00
2023-03-06T18:47:15.395Z,100193.72
2023-03-06T18:49:44.119Z,100192.44
2023-03-06T18:52:19.113Z,100186.16
2023-03-06T18:54:45.502Z,100179.66
2023-03-06T18:57:11.882Z,100172.09
2023-03-06T18:59:38.210Z,100173.72
2023-03-06T19:02:04.662Z,100164.31
2023-03-06T19:04:31.058Z,100168.03
2023-03-06T19:06:57.440Z,100160.13
2023-03-06T19:09:23.818Z,100153.63
2023-03-06T19:11:50.202Z,100148.66
2023-03-06T19:14:16.947Z,100145.41
2023-03-06T19:16:43.400Z,100141.44
2023-03-06T19:19:09.808Z,100137.91
2023-03-06T19:21:36.263Z,100139.06
2023-03-06T19:24:03.281Z,100133.38
2023-03-06T19:26:29.642Z,100130.78
2023-03-06T19:28:56.073Z,100133.69
2023-03-06T19:31:27.565Z,100128.34
2023-03-06T19:33:55.833Z,100122.16
2023-03-06T19:36:26.622Z,100119.31
2023-03-06T19:38:55.126Z,100129.69
2023-03-06T19:41:21.665Z,100102.31
2023-03-06T19:43:54.502Z,100110.69
2023-03-06T19:46:22.277Z,100107.19
2023-03-06T19:48:48.783Z,100109.63
2023-03-06T19:51:15.216Z,100092.41
2023-03-06T19:53:41.628Z,100105.91
2023-03-06T19:56:09.675Z,100086.63
2023-03-06T19:58:36.461Z,100083.47
2023-03-06T20:01:09.584Z,100080.22
2023-03-06T20:03:36.060Z,100071.44
2023-03-06T20:06:06.232Z,100067.78
2023-03-06T20:08:32.778Z,100059.75
2023-03-06T20:10:59.121Z,100053.91
2023-03-06T20:13:25.510Z,100051.78
2023-03-06T20:15:51.920Z,100052.56
2023-03-06T20:18:18.276Z,100043.78
2023-03-06T20:20:44.647Z,100042.50
2023-03-06T20:23:11.832Z,100027.97
2023-03-06T20:25:38.202Z,100025.28
2023-03-06T20:28:05.001Z,100027.22
2023-03-06T20:30:37.791Z,100023.47
2023-03-06T20:33:04.616Z,100006.09
2023-03-06T20:35:31.097Z,100002.09
2023-03-06T20:37:57.692Z,100004.63
2023-03-06T20:40:24.102Z,99992.75
2023-03-06T20:42:50.479Z,99999.97
2023-03-06T20:45:16.954Z,99998.91
2023-03-06T20:47:47.061Z,99990.72
2023-03-06T20:50:15.172Z,99978.44
2023-03-06T20:52:41.558Z,99973.88
2023-03-06T20:55:08.361Z,99969.00
2023-03-06T20:57:34.791Z,99972.25
2023-03-06T21:00:01.182Z,99966.97
2023-03-06T21:02:27.539Z,99947.38
2023-03-06T21:04:53.950Z,99956.78
2023-03-06T21:07:20.358Z,99954.66
2023-03-06T21:09:47.638Z,99955.22
2023-03-06T21:12:14.053Z,99942.38
2023-03-06T21:14:40.386Z,99954.16
2023-03-06T21:17:06.739Z,99949.94
2023-03-06T21:19:33.117Z,99944.56
2023-03-06T21:21:59.480Z,99936.59
2023-03-06T21:24:25.867Z,99922.09
2023-03-06T21:26:52.284Z,99926.19
2023-03-06T21:29:18.692Z,99923.78
2023-03-06T21:31:45.107Z,99923.84
2023-03-06T21:34:11.666Z,99915.53
2023-03-06T21:36:38.154Z,99914.47
2023-03-06T21:39:06.295Z,99915.31
2023-03-06T21:41:32.917Z,99912.13
2023-03-06T21:44:01.731Z,99910.78
2023-03-06T21:46:28.462Z,99910.56
2023-03-06T21:48:55.432Z,99906.53
2023-03-06T21:51:26.212Z,99906.31
2023-03-06T21:53:53.642Z,99904.41
2023-03-06T21:56:22.209Z,99915.16
2023-03-06T21:58:48.700Z,99915.78
2023-03-06T22:01:23.703Z,99909.66
2023-03-06T22:03:50.536Z,99910.78
2023-03-06T22:06:19.711Z,99905.97
2023-03-06T22:08:46.806Z,99903.84
2023-03-06T22:11:19.247Z,99906.25
2023-03-06T22:13:46.040Z,99896.34
2023-03-06T22:16:13.149Z,99897.44
2023-03-06T22:18:39.678Z,99901.50
2023-03-06T22:21:08.237Z,99886.19
2023-03-06T22:23:34.670Z,99893.19
2023-03-06T22:26:04.959Z,99884.59
2023-03-06T22:28:32.599Z,99885.38
2023-03-06T22:31:13.361Z,99880.84
2023-03-06T22:33:40.425Z,99887.25
2023-03-06T22:36:09.407Z,99880.00
2023-03-06T22:38:41.106Z,99883.50
2023-03-06T22:41:08.717Z,99873.84
2023-03-06T22:43:36.075Z,99875.97
2023-03-06T22:46:08.402Z,99875.13
2023-03-06T22:48:35.110Z,99878.09
2023-03-06T22:51:06.221Z,99874.84
2023-03-06T22:53:33.371Z,99871.59
2023-03-06T22:56:01.760Z,99868.09
2023-03-06T22:58:34.356Z,99868.38
2023-03-06T23:01:08.884Z,99872.13
2023-03-06T23:03:39.944Z,99868.88
2023-03-06T23:06:37.025Z,99871.56
2023-03-06T23:09:15.868Z,99870.50
2023-03-06T23:11:42.471Z,99860.81
2023-03-06T23:14:12.067Z,99863.50
2023-03-06T23:16:38.891Z,99874.75
2023-03-06T23:19:06.143Z,99872.00
2023-03-06T23:21:34.198Z,99868.25
2023-03-06T23:24:01.172Z,99866.09
2023-03-06T23:26:30.086Z,99864.47
2023-03-06T23:28:56.884Z,99859.88
2023-03-06T23:31:28.534Z,99867.16
2023-03-06T23:34:02.137Z,99856.91
2023-03-06T23:36:29.138Z,99860.16
2023-03-06T23:38:55.707Z,99860.16
2023-03-06T23:41:22.807Z,99861.47
2023-03-06T23:43:49.799Z,99858.53
2023-03-06T23:46:16.679Z,99857.19
2023-03-06T23:48:44.291Z,99849.72
2023-03-06T23:51:15.558Z,99852.16
2023-03-06T23:53:43.330Z,99858.09
2023-03-06T23:56:10.471Z,99850.31
2023-03-06T23:58:37.384Z,99855.72
